sensor_id;sensor_type;location;lat;lon;timestamp;temperature;humidity
63289;DHT22;49412;48.162;-1.978;2022-07-29T00:00:20;21.10;99.90
63289;DHT22;49412;48.162;-1.978;2022-07-29T00:02:46;21.20;99.90
63289;DHT22;49412;48.162;-1.978;2022-07-29T00:05:11;21.10;99.90
63289;DHT22;49412;48.162;-1.978;2022-07-29T00:07:39;21.00;99.90
63289;DHT22;49412;48.162;-1.978;2022-07-29T00:10:04;20.80;99.90
63289;DHT22;49412;48.162;-1.978;2022-07-29T00:12:30;20.80;99.90
63289;DHT22;49412;48.162;-1.978;2022-07-29T00:14:56;20.80;99.90
63289;DHT22;49412;48.162;-1.978;2022-07-29T00:17:22;20.80;99.90
63289;DHT22;49412;48.162;-1.978;2022-07-29T00:19:48;20.80;99.90
63289;DHT22;49412;48.162;-1.978;2022-07-29T00:22:13;20.80;99.90
63289;DHT22;49412;48.162;-1.978;2022-07-29T00:24:39;20.80;99.90
63289;DHT22;49412;48.162;-1.978;2022-07-29T00:27:04;20.80;99.90
63289;DHT22;49412;48.162;-1.978;2022-07-29T00:29:30;20.80;99.90
63289;DHT22;49412;48.162;-1.978;2022-07-29T00:31:55;20.80;99.90
63289;DHT22;49412;48.162;-1.978;2022-07-29T00:34:21;21.00;99.90
63289;DHT22;49412;48.162;-1.978;2022-07-29T00:37:05;20.90;99.90
63289;DHT22;49412;48.162;-1.978;2022-07-29T00:39:31;20.80;99.90
63289;DHT22;49412;48.162;-1.978;2022-07-29T00:41:56;20.90;99.90
63289;DHT22;49412;48.162;-1.978;2022-07-29T00:44:22;20.80;99.90
63289;DHT22;49412;48.162;-1.978;2022-07-29T00:46:47;20.70;99.90
63289;DHT22;49412;48.162;-1.978;2022-07-29T00:49:13;20.80;99.90
63289;DHT22;49412;48.162;-1.978;2022-07-29T00:51:39;20.80;99.90
63289;DHT22;49412;48.162;-1.978;2022-07-29T00:54:04;20.70;99.90
63289;DHT22;49412;48.162;-1.978;2022-07-29T00:56:31;20.70;99.90
63289;DHT22;49412;48.162;-1.978;2022-07-29T00:58:57;20.70;99.90
63289;DHT22;49412;48.162;-1.978;2022-07-29T01:01:23;20.70;99.90
63289;DHT22;49412;48.162;-1.978;2022-07-29T01:03:49;20.60;99.90
63289;DHT22;49412;48.162;-1.978;2022-07-29T01:06:15;20.70;99.90
63289;DHT22;49412;48.162;-1.978;2022-07-29T01:08:41;20.80;99.90
63289;DHT22;49412;48.162;-1.978;2022-07-29T01:11:07;20.70;99.90
63289;DHT22;49412;48.162;-1.978;2022-07-29T01:13:33;20.70;99.90
63289;DHT22;49412;48.162;-1.978;2022-07-29T01:16:03;20.70;99.90
63289;DHT22;49412;48.162;-1.978;2022-07-29T01:18:32;20.60;99.90
63289;DHT22;49412;48.162;-1.978;2022-07-29T01:28:56;20.60;99.90
63289;DHT22;49412;48.162;-1.978;2022-07-29T01:31:25;20.60;99.90
63289;DHT22;49412;48.162;-1.978;2022-07-29T01:33:57;20.60;99.90
63289;DHT22;49412;48.162;-1.978;2022-07-29T01:36:31;20.60;99.90
63289;DHT22;49412;48.162;-1.978;2022-07-29T01:38:59;20.50;99.90
63289;DHT22;49412;48.162;-1.978;2022-07-29T01:41:27;20.60;99.90
63289;DHT22;49412;48.162;-1.978;2022-07-29T01:43:56;20.60;99.90
63289;DHT22;49412;48.162;-1.978;2022-07-29T01:46:33;20.60;99.90
63289;DHT22;49412;48.162;-1.978;2022-07-29T01:49:01;20.50;99.90
63289;DHT22;49412;48.162;-1.978;2022-07-29T01:54:02;20.70;99.90
63289;DHT22;49412;48.162;-1.978;2022-07-29T01:56:29;20.60;99.90
63289;DHT22;49412;48.162;-1.978;2022-07-29T01:58:59;20.70;99.90
63289;DHT22;49412;48.162;-1.978;2022-07-29T02:01:25;20.60;99.90
63289;DHT22;49412;48.162;-1.978;2022-07-29T02:03:51;20.60;99.90
63289;DHT22;49412;48.162;-1.978;2022-07-29T02:06:19;20.50;99.90
63289;DHT22;49412;48.162;-1.978;2022-07-29T02:08:46;20.60;99.90
63289;DHT22;49412;48.162;-1.978;2022-07-29T02:11:12;20.60;99.90
63289;DHT22;49412;48.162;-1.978;2022-07-29T02:13:38;20.50;99.90
63289;DHT22;49412;48.162;-1.978;2022-07-29T02:16:04;20.60;99.90
63289;DHT22;49412;48.162;-1.978;2022-07-29T02:18:31;20.60;99.90
63289;DHT22;49412;48.162;-1.978;2022-07-29T02:20:57;20.50;99.90
63289;DHT22;49412;48.162;-1.978;2022-07-29T02:23:24;20.60;99.90
63289;DHT22;49412;48.162;-1.978;2022-07-29T02:25:53;20.60;99.90
63289;DHT22;49412;48.162;-1.978;2022-07-29T02:28:20;20.60;99.90
63289;DHT22;49412;48.162;-1.978;2022-07-29T02:30:47;20.50;99.90
63289;DHT22;49412;48.162;-1.978;2022-07-29T02:33:14;20.50;99.90
63289;DHT22;49412;48.162;-1.978;2022-07-29T02:35:41;20.40;99.90
63289;DHT22;49412;48.162;-1.978;2022-07-29T02:38:09;20.30;99.90
63289;DHT22;49412;48.162;-1.978;2022-07-29T02:40:56;20.30;99.90
63289;DHT22;49412;48.162;-1.978;2022-07-29T02:43:22;20.40;99.90
63289;DHT22;49412;48.162;-1.978;2022-07-29T02:45:47;20.50;99.90
63289;DHT22;49412;48.162;-1.978;2022-07-29T02:48:15;20.60;99.90
63289;DHT22;49412;48.162;-1.978;2022-07-29T02:50:48;20.50;99.90
63289;DHT22;49412;48.162;-1.978;2022-07-29T02:53:16;20.50;99.90
63289;DHT22;49412;48.162;-1.978;2022-07-29T02:55:43;20.50;99.90
63289;DHT22;49412;48.162;-1.978;2022-07-29T02:58:30;20.40;99.90
63289;DHT22;49412;48.162;-1.978;2022-07-29T03:01:08;20.40;99.90
63289;DHT22;49412;48.162;-1.978;2022-07-29T03:03:37;20.40;99.90
63289;DHT22;49412;48.162;-1.978;2022-07-29T03:06:03;20.50;99.90
63289;DHT22;49412;48.162;-1.978;2022-07-29T03:08:29;20.60;99.90
63289;DHT22;49412;48.162;-1.978;2022-07-29T03:10:56;20.60;99.90
63289;DHT22;49412;48.162;-1.978;2022-07-29T03:13:21;20.60;99.90
63289;DHT22;49412;48.162;-1.978;2022-07-29T03:15:48;20.60;99.90
63289;DHT22;49412;48.162;-1.978;2022-07-29T03:18:14;20.60;99.90
63289;DHT22;49412;48.162;-1.978;2022-07-29T03:20:40;20.60;99.90
63289;DHT22;49412;48.162;-1.978;2022-07-29T03:23:06;20.60;99.90
63289;DHT22;49412;48.162;-1.978;2022-07-29T03:25:31;20.50;99.90
63289;DHT22;49412;48.162;-1.978;2022-07-29T03:27:57;20.50;99.90
63289;DHT22;49412;48.162;-1.978;2022-07-29T03:30:22;20.60;99.90
63289;DHT22;49412;48.162;-1.978;2022-07-29T03:32:49;20.50;99.90
63289;DHT22;49412;48.162;-1.978;2022-07-29T03:35:15;20.50;99.90
63289;DHT22;49412;48.162;-1.978;2022-07-29T03:37:42;20.50;99.90
63289;DHT22;49412;48.162;-1.978;2022-07-29T03:40:08;20.40;99.90
63289;DHT22;49412;48.162;-1.978;2022-07-29T03:42:36;20.40;99.90
63289;DHT22;49412;48.162;-1.978;2022-07-29T03:45:05;20.40;99.90
63289;DHT22;49412;48.162;-1.978;2022-07-29T03:47:31;20.30;99.90
63289;DHT22;49412;48.162;-1.978;2022-07-29T03:50:05;20.30;99.90
63289;DHT22;49412;48.162;-1.978;2022-07-29T03:52:31;20.40;99.90
63289;DHT22;49412;48.162;-1.978;2022-07-29T03:54:57;20.30;99.90
63289;DHT22;49412;48.162;-1.978;2022-07-29T03:57:23;20.40;99.90
63289;DHT22;49412;48.162;-1.978;2022-07-29T03:59:50;20.50;99.90
63289;DHT22;49412;48.162;-1.978;2022-07-29T04:02:16;20.50;99.90
63289;DHT22;49412;48.162;-1.978;2022-07-29T04:04:42;20.50;99.90
63289;DHT22;49412;48.162;-1.978;2022-07-29T04:07:08;20.60;99.90
63289;DHT22;49412;48.162;-1.978;2022-07-29T04:09:36;20.50;99.90
63289;DHT22;49412;48.162;-1.978;2022-07-29T04:12:02;20.50;99.90
63289;DHT22;49412;48.162;-1.978;2022-07-29T04:14:27;20.40;99.90
63289;DHT22;49412;48.162;-1.978;2022-07-29T04:16:53;20.50;99.90
63289;DHT22;49412;48.162;-1.978;2022-07-29T04:19:18;20.50;99.90
63289;DHT22;49412;48.162;-1.978;2022-07-29T04:21:44;20.50;99.90
63289;DHT22;49412;48.162;-1.978;2022-07-29T04:24:10;20.50;99.90
63289;DHT22;49412;48.162;-1.978;2022-07-29T04:26:36;20.60;99.90
63289;DHT22;49412;48.162;-1.978;2022-07-29T04:29:01;20.50;99.90
63289;DHT22;49412;48.162;-1.978;2022-07-29T04:31:27;20.50;99.90
63289;DHT22;49412;48.162;-1.978;2022-07-29T04:33:52;20.40;99.90
63289;DHT22;49412;48.162;-1.978;2022-07-29T04:36:18;20.30;99.90
63289;DHT22;49412;48.162;-1.978;2022-07-29T04:38:44;20.40;99.90
63289;DHT22;49412;48.162;-1.978;2022-07-29T04:41:09;20.40;99.90
63289;DHT22;49412;48.162;-1.978;2022-07-29T04:43:35;20.40;99.90
63289;DHT22;49412;48.162;-1.978;2022-07-29T04:46:01;20.30;99.90
63289;DHT22;49412;48.162;-1.978;2022-07-29T04:48:26;20.40;99.90
63289;DHT22;49412;48.162;-1.978;2022-07-29T04:50:52;20.30;99.90
63289;DHT22;49412;48.162;-1.978;2022-07-29T04:53:18;20.50;99.90
63289;DHT22;49412;48.162;-1.978;2022-07-29T04:55:43;20.60;99.90
63289;DHT22;49412;48.162;-1.978;2022-07-29T04:58:10;20.50;99.90
63289;DHT22;49412;48.162;-1.978;2022-07-29T05:00:35;20.50;99.90
63289;DHT22;49412;48.162;-1.978;2022-07-29T05:03:01;20.50;99.90
63289;DHT22;49412;48.162;-1.978;2022-07-29T05:05:27;20.60;99.90
63289;DHT22;49412;48.162;-1.978;2022-07-29T05:07:52;20.50;99.90
63289;DHT22;49412;48.162;-1.978;2022-07-29T05:10:18;20.60;99.90
63289;DHT22;49412;48.162;-1.978;2022-07-29T05:12:43;20.50;99.90
63289;DHT22;49412;48.162;-1.978;2022-07-29T05:15:09;20.60;99.90
63289;DHT22;49412;48.162;-1.978;2022-07-29T05:17:35;20.60;99.90
63289;DHT22;49412;48.162;-1.978;2022-07-29T05:20:00;20.60;99.90
63289;DHT22;49412;48.162;-1.978;2022-07-29T05:22:26;20.60;99.90
63289;DHT22;49412;48.162;-1.978;2022-07-29T05:24:51;20.50;99.90
63289;DHT22;49412;48.162;-1.978;2022-07-29T05:27:17;20.50;99.90
63289;DHT22;49412;48.162;-1.978;2022-07-29T05:29:43;20.50;99.90
63289;DHT22;49412;48.162;-1.978;2022-07-29T05:32:08;20.60;99.90
63289;DHT22;49412;48.162;-1.978;2022-07-29T05:34:34;20.70;99.90
63289;DHT22;49412;48.162;-1.978;2022-07-29T05:36:59;20.80;99.90
63289;DHT22;49412;48.162;-1.978;2022-07-29T05:39:25;20.80;99.90
63289;DHT22;49412;48.162;-1.978;2022-07-29T05:41:51;20.90;99.90
63289;DHT22;49412;48.162;-1.978;2022-07-29T05:44:16;21.00;99.90
63289;DHT22;49412;48.162;-1.978;2022-07-29T05:46:42;21.10;99.90
63289;DHT22;49412;48.162;-1.978;2022-07-29T05:49:07;21.30;99.90
63289;DHT22;49412;48.162;-1.978;2022-07-29T05:51:33;21.30;99.90
63289;DHT22;49412;48.162;-1.978;2022-07-29T05:53:59;21.60;99.90
63289;DHT22;49412;48.162;-1.978;2022-07-29T05:56:25;21.60;99.90
63289;DHT22;49412;48.162;-1.978;2022-07-29T05:58:51;21.60;99.90
63289;DHT22;49412;48.162;-1.978;2022-07-29T06:01:16;21.70;99.90
63289;DHT22;49412;48.162;-1.978;2022-07-29T06:03:42;21.60;99.90
63289;DHT22;49412;48.162;-1.978;2022-07-29T06:06:08;21.70;99.90
63289;DHT22;49412;48.162;-1.978;2022-07-29T06:08:34;21.80;99.90
63289;DHT22;49412;48.162;-1.978;2022-07-29T06:11:00;22.00;99.90
63289;DHT22;49412;48.162;-1.978;2022-07-29T06:13:26;22.10;99.90
63289;DHT22;49412;48.162;-1.978;2022-07-29T06:15:51;22.10;99.90
63289;DHT22;49412;48.162;-1.978;2022-07-29T06:18:17;22.10;99.90
63289;DHT22;49412;48.162;-1.978;2022-07-29T06:20:43;22.40;99.90
63289;DHT22;49412;48.162;-1.978;2022-07-29T06:23:08;22.40;99.90
63289;DHT22;49412;48.162;-1.978;2022-07-29T06:25:35;22.50;99.90
63289;DHT22;49412;48.162;-1.978;2022-07-29T06:28:02;22.60;99.90
63289;DHT22;49412;48.162;-1.978;2022-07-29T06:30:27;22.70;99.90
63289;DHT22;49412;48.162;-1.978;2022-07-29T06:32:54;22.80;99.90
63289;DHT22;49412;48.162;-1.978;2022-07-29T06:35:19;22.90;99.90
63289;DHT22;49412;48.162;-1.978;2022-07-29T06:37:45;23.20;99.90
63289;DHT22;49412;48.162;-1.978;2022-07-29T06:40:10;23.30;99.90
63289;DHT22;49412;48.162;-1.978;2022-07-29T06:42:55;23.40;99.90
63289;DHT22;49412;48.162;-1.978;2022-07-29T06:45:21;23.40;99.90
63289;DHT22;49412;48.162;-1.978;2022-07-29T06:47:46;23.40;99.90
63289;DHT22;49412;48.162;-1.978;2022-07-29T06:50:12;23.60;99.90
63289;DHT22;49412;48.162;-1.978;2022-07-29T06:52:38;23.80;99.90
63289;DHT22;49412;48.162;-1.978;2022-07-29T06:55:04;23.90;99.90
63289;DHT22;49412;48.162;-1.978;2022-07-29T06:57:30;24.00;99.90
63289;DHT22;49412;48.162;-1.978;2022-07-29T06:59:56;24.10;99.90
63289;DHT22;49412;48.162;-1.978;2022-07-29T07:02:21;24.40;99.90
63289;DHT22;49412;48.162;-1.978;2022-07-29T07:04:47;24.50;99.90
63289;DHT22;49412;48.162;-1.978;2022-07-29T07:07:13;24.70;99.90
63289;DHT22;49412;48.162;-1.978;2022-07-29T07:09:38;24.90;99.90
63289;DHT22;49412;48.162;-1.978;2022-07-29T07:12:04;25.30;99.90
63289;DHT22;49412;48.162;-1.978;2022-07-29T07:14:30;25.40;99.90
63289;DHT22;49412;48.162;-1.978;2022-07-29T07:16:55;25.30;99.90
63289;DHT22;49412;48.162;-1.978;2022-07-29T07:19:21;25.60;99.90
63289;DHT22;49412;48.162;-1.978;2022-07-29T07:21:46;25.70;99.90
63289;DHT22;49412;48.162;-1.978;2022-07-29T07:24:12;25.90;99.90
63289;DHT22;49412;48.162;-1.978;2022-07-29T07:26:37;26.30;99.90
63289;DHT22;49412;48.162;-1.978;2022-07-29T07:29:05;26.60;99.90
63289;DHT22;49412;48.162;-1.978;2022-07-29T07:31:30;26.60;99.90
63289;DHT22;49412;48.162;-1.978;2022-07-29T07:33:56;26.40;99.90
63289;DHT22;49412;48.162;-1.978;2022-07-29T07:36:22;26.40;99.90
63289;DHT22;49412;48.162;-1.978;2022-07-29T07:38:48;26.60;99.90
63289;DHT22;49412;48.162;-1.978;2022-07-29T07:41:14;27.10;99.90
63289;DHT22;49412;48.162;-1.978;2022-07-29T07:43:39;27.10;99.90
63289;DHT22;49412;48.162;-1.978;2022-07-29T07:46:05;27.40;99.90
63289;DHT22;49412;48.162;-1.978;2022-07-29T07:48:31;27.80;98.60
63289;DHT22;49412;48.162;-1.978;2022-07-29T07:50:56;28.90;94.90
63289;DHT22;49412;48.162;-1.978;2022-07-29T07:53:22;28.70;94.50
63289;DHT22;49412;48.162;-1.978;2022-07-29T07:55:48;28.20;95.00
63289;DHT22;49412;48.162;-1.978;2022-07-29T07:58:13;28.20;94.30
63289;DHT22;49412;48.162;-1.978;2022-07-29T08:00:39;28.30;94.00
63289;DHT22;49412;48.162;-1.978;2022-07-29T08:03:04;28.60;89.30
63289;DHT22;49412;48.162;-1.978;2022-07-29T08:05:30;29.00;91.10
63289;DHT22;49412;48.162;-1.978;2022-07-29T08:07:56;28.60;88.30
63289;DHT22;49412;48.162;-1.978;2022-07-29T08:10:21;28.70;88.70
63289;DHT22;49412;48.162;-1.978;2022-07-29T08:13:06;28.70;86.90
63289;DHT22;49412;48.162;-1.978;2022-07-29T08:15:32;28.70;84.70
63289;DHT22;49412;48.162;-1.978;2022-07-29T08:17:58;28.90;84.80
63289;DHT22;49412;48.162;-1.978;2022-07-29T08:20:23;29.40;84.50
63289;DHT22;49412;48.162;-1.978;2022-07-29T08:22:49;29.40;82.20
63289;DHT22;49412;48.162;-1.978;2022-07-29T08:25:15;29.00;82.20
63289;DHT22;49412;48.162;-1.978;2022-07-29T08:27:40;28.60;83.10
63289;DHT22;49412;48.162;-1.978;2022-07-29T08:30:06;28.60;83.10
63289;DHT22;49412;48.162;-1.978;2022-07-29T08:35:21;28.80;81.00
63289;DHT22;49412;48.162;-1.978;2022-07-29T08:37:47;29.10;78.30
63289;DHT22;49412;48.162;-1.978;2022-07-29T08:40:13;29.10;78.00
63289;DHT22;49412;48.162;-1.978;2022-07-29T08:42:39;28.80;78.80
63289;DHT22;49412;48.162;-1.978;2022-07-29T08:45:05;29.00;78.70
63289;DHT22;49412;48.162;-1.978;2022-07-29T08:47:31;28.90;77.50
63289;DHT22;49412;48.162;-1.978;2022-07-29T08:49:56;28.80;77.70
63289;DHT22;49412;48.162;-1.978;2022-07-29T08:52:23;28.90;77.70
63289;DHT22;49412;48.162;-1.978;2022-07-29T08:54:50;29.60;76.70
63289;DHT22;49412;48.162;-1.978;2022-07-29T08:57:17;29.70;75.80
63289;DHT22;49412;48.162;-1.978;2022-07-29T08:59:43;29.80;75.80
63289;DHT22;49412;48.162;-1.978;2022-07-29T09:02:12;29.50;77.40
63289;DHT22;49412;48.162;-1.978;2022-07-29T09:04:41;29.40;78.10
63289;DHT22;49412;48.162;-1.978;2022-07-29T09:07:06;29.40;77.40
63289;DHT22;49412;48.162;-1.978;2022-07-29T09:09:34;29.40;77.50
63289;DHT22;49412;48.162;-1.978;2022-07-29T09:11:59;29.60;76.90
63289;DHT22;49412;48.162;-1.978;2022-07-29T09:14:25;29.60;77.20
63289;DHT22;49412;48.162;-1.978;2022-07-29T09:16:54;29.80;76.40
63289;DHT22;49412;48.162;-1.978;2022-07-29T09:19:23;30.00;76.40
63289;DHT22;49412;48.162;-1.978;2022-07-29T09:21:48;30.30;74.90
63289;DHT22;49412;48.162;-1.978;2022-07-29T09:24:24;30.70;73.90
63289;DHT22;49412;48.162;-1.978;2022-07-29T09:26:50;30.90;72.90
63289;DHT22;49412;48.162;-1.978;2022-07-29T09:29:17;30.90;72.20
63289;DHT22;49412;48.162;-1.978;2022-07-29T09:31:44;31.20;71.90
63289;DHT22;49412;48.162;-1.978;2022-07-29T09:34:10;31.30;71.30
63289;DHT22;49412;48.162;-1.978;2022-07-29T09:36:40;31.10;70.30
63289;DHT22;49412;48.162;-1.978;2022-07-29T09:39:06;30.80;70.50
63289;DHT22;49412;48.162;-1.978;2022-07-29T09:41:45;30.60;71.20
63289;DHT22;49412;48.162;-1.978;2022-07-29T09:44:10;30.60;71.00
63289;DHT22;49412;48.162;-1.978;2022-07-29T09:46:36;30.60;70.60
63289;DHT22;49412;48.162;-1.978;2022-07-29T09:49:11;30.30;70.70
63289;DHT22;49412;48.162;-1.978;2022-07-29T09:51:38;30.20;71.00
63289;DHT22;49412;48.162;-1.978;2022-07-29T09:54:22;29.90;71.50
63289;DHT22;49412;48.162;-1.978;2022-07-29T09:56:48;29.60;71.80
63289;DHT22;49412;48.162;-1.978;2022-07-29T09:59:14;29.80;72.00
63289;DHT22;49412;48.162;-1.978;2022-07-29T10:01:40;29.70;71.70
63289;DHT22;49412;48.162;-1.978;2022-07-29T10:04:05;29.80;71.70
63289;DHT22;49412;48.162;-1.978;2022-07-29T10:06:31;29.60;71.90
63289;DHT22;49412;48.162;-1.978;2022-07-29T10:09:09;29.30;71.80
63289;DHT22;49412;48.162;-1.978;2022-07-29T10:11:35;29.50;72.30
63289;DHT22;49412;48.162;-1.978;2022-07-29T10:14:01;29.50;72.30
63289;DHT22;49412;48.162;-1.978;2022-07-29T10:16:27;29.50;72.40
63289;DHT22;49412;48.162;-1.978;2022-07-29T10:18:58;29.20;71.60
63289;DHT22;49412;48.162;-1.978;2022-07-29T10:21:27;29.00;72.80
63289;DHT22;49412;48.162;-1.978;2022-07-29T10:23:53;28.80;73.50
63289;DHT22;49412;48.162;-1.978;2022-07-29T10:26:19;28.90;72.50
63289;DHT22;49412;48.162;-1.978;2022-07-29T10:28:45;28.90;72.40
63289;DHT22;49412;48.162;-1.978;2022-07-29T10:31:22;29.00;73.00
63289;DHT22;49412;48.162;-1.978;2022-07-29T10:33:55;29.00;73.20
63289;DHT22;49412;48.162;-1.978;2022-07-29T10:36:50;29.00;73.30
63289;DHT22;49412;48.162;-1.978;2022-07-29T10:44:18;29.40;72.80
63289;DHT22;49412;48.162;-1.978;2022-07-29T10:46:45;29.80;72.50
63289;DHT22;49412;48.162;-1.978;2022-07-29T10:49:17;30.00;72.30
63289;DHT22;49412;48.162;-1.978;2022-07-29T10:51:54;30.30;70.90
63289;DHT22;49412;48.162;-1.978;2022-07-29T10:57:10;30.60;70.50
63289;DHT22;49412;48.162;-1.978;2022-07-29T10:59:35;31.00;70.00
63289;DHT22;49412;48.162;-1.978;2022-07-29T11:02:01;31.60;67.40
63289;DHT22;49412;48.162;-1.978;2022-07-29T11:07:10;34.10;64.30
63289;DHT22;49412;48.162;-1.978;2022-07-29T11:09:37;34.30;64.20
63289;DHT22;49412;48.162;-1.978;2022-07-29T11:12:03;35.80;61.90
63289;DHT22;49412;48.162;-1.978;2022-07-29T11:15:14;36.30;60.20
63289;DHT22;49412;48.162;-1.978;2022-07-29T11:17:14;38.70;57.60
63289;DHT22;49412;48.162;-1.978;2022-07-29T11:19:40;41.30;54.10
63289;DHT22;49412;48.162;-1.978;2022-07-29T11:22:08;43.60;50.10
63289;DHT22;49412;48.162;-1.978;2022-07-29T11:24:33;43.50;47.60
63289;DHT22;49412;48.162;-1.978;2022-07-29T11:27:16;43.40;46.80
63289;DHT22;49412;48.162;-1.978;2022-07-29T11:29:49;44.70;46.00
63289;DHT22;49412;48.162;-1.978;2022-07-29T11:32:15;44.60;45.00
63289;DHT22;49412;48.162;-1.978;2022-07-29T11:34:43;44.00;44.70
63289;DHT22;49412;48.162;-1.978;2022-07-29T11:39:38;42.80;45.90
63289;DHT22;49412;48.162;-1.978;2022-07-29T11:47:21;44.70;42.60
63289;DHT22;49412;48.162;-1.978;2022-07-29T11:49:47;44.70;42.60
63289;DHT22;49412;48.162;-1.978;2022-07-29T11:52:13;42.60;42.80
63289;DHT22;49412;48.162;-1.978;2022-07-29T11:54:38;42.00;44.50
63289;DHT22;49412;48.162;-1.978;2022-07-29T11:57:07;42.90;44.50
63289;DHT22;49412;48.162;-1.978;2022-07-29T11:59:37;43.70;43.40
63289;DHT22;49412;48.162;-1.978;2022-07-29T12:02:03;44.80;43.70
63289;DHT22;49412;48.162;-1.978;2022-07-29T12:04:29;45.30;42.30
63289;DHT22;49412;48.162;-1.978;2022-07-29T12:06:55;45.90;41.90
63289;DHT22;49412;48.162;-1.978;2022-07-29T12:09:22;45.10;41.70
63289;DHT22;49412;48.162;-1.978;2022-07-29T12:11:48;45.30;41.10
63289;DHT22;49412;48.162;-1.978;2022-07-29T12:16:51;45.10;41.40
63289;DHT22;49412;48.162;-1.978;2022-07-29T12:19:17;46.00;40.50
63289;DHT22;49412;48.162;-1.978;2022-07-29T12:21:52;46.10;40.30
63289;DHT22;49412;48.162;-1.978;2022-07-29T12:24:18;47.90;39.30
63289;DHT22;49412;48.162;-1.978;2022-07-29T12:26:51;49.10;39.00
63289;DHT22;49412;48.162;-1.978;2022-07-29T12:29:17;48.60;38.00
63289;DHT22;49412;48.162;-1.978;2022-07-29T12:31:43;47.70;38.90
63289;DHT22;49412;48.162;-1.978;2022-07-29T12:34:12;46.80;38.70
63289;DHT22;49412;48.162;-1.978;2022-07-29T12:36:39;46.80;39.00
63289;DHT22;49412;48.162;-1.978;2022-07-29T12:39:05;45.60;38.80
63289;DHT22;49412;48.162;-1.978;2022-07-29T12:41:31;46.60;38.30
63289;DHT22;49412;48.162;-1.978;2022-07-29T12:43:57;46.80;38.30
63289;DHT22;49412;48.162;-1.978;2022-07-29T12:46:23;46.50;38.40
63289;DHT22;49412;48.162;-1.978;2022-07-29T12:48:51;46.00;38.60
63289;DHT22;49412;48.162;-1.978;2022-07-29T12:51:29;46.90;38.60
63289;DHT22;49412;48.162;-1.978;2022-07-29T12:54:05;47.00;37.10
63289;DHT22;49412;48.162;-1.978;2022-07-29T12:56:32;46.60;37.90
63289;DHT22;49412;48.162;-1.978;2022-07-29T12:58:57;46.80;37.20
63289;DHT22;49412;48.162;-1.978;2022-07-29T13:01:23;46.80;38.60
63289;DHT22;49412;48.162;-1.978;2022-07-29T13:03:53;47.10;37.40
63289;DHT22;49412;48.162;-1.978;2022-07-29T13:09:15;47.30;37.50
63289;DHT22;49412;48.162;-1.978;2022-07-29T13:11:41;47.70;36.80
63289;DHT22;49412;48.162;-1.978;2022-07-29T13:14:11;47.70;37.40
63289;DHT22;49412;48.162;-1.978;2022-07-29T13:16:59;47.30;36.80
63289;DHT22;49412;48.162;-1.978;2022-07-29T13:19:32;47.10;37.20
63289;DHT22;49412;48.162;-1.978;2022-07-29T13:21:58;47.20;37.20
63289;DHT22;49412;48.162;-1.978;2022-07-29T13:24:23;47.40;37.20
63289;DHT22;49412;48.162;-1.978;2022-07-29T13:26:49;47.30;37.10
63289;DHT22;49412;48.162;-1.978;2022-07-29T13:29:16;46.80;37.20
63289;DHT22;49412;48.162;-1.978;2022-07-29T13:31:41;45.70;37.70
63289;DHT22;49412;48.162;-1.978;2022-07-29T13:34:07;45.70;37.70
63289;DHT22;49412;48.162;-1.978;2022-07-29T13:36:32;45.40;38.20
63289;DHT22;49412;48.162;-1.978;2022-07-29T13:38:58;43.40;38.70
63289;DHT22;49412;48.162;-1.978;2022-07-29T13:41:24;41.20;40.10
63289;DHT22;49412;48.162;-1.978;2022-07-29T13:43:50;40.80;40.90
63289;DHT22;49412;48.162;-1.978;2022-07-29T13:46:15;41.80;40.10
63289;DHT22;49412;48.162;-1.978;2022-07-29T13:48:41;42.00;40.00
63289;DHT22;49412;48.162;-1.978;2022-07-29T13:51:07;39.80;40.80
63289;DHT22;49412;48.162;-1.978;2022-07-29T13:53:32;37.90;42.80
63289;DHT22;49412;48.162;-1.978;2022-07-29T13:55:58;38.90;43.30
63289;DHT22;49412;48.162;-1.978;2022-07-29T13:58:24;40.10;41.70
63289;DHT22;49412;48.162;-1.978;2022-07-29T14:00:49;40.70;41.10
63289;DHT22;49412;48.162;-1.978;2022-07-29T14:03:15;41.70;40.90
63289;DHT22;49412;48.162;-1.978;2022-07-29T14:05:40;42.90;40.10
63289;DHT22;49412;48.162;-1.978;2022-07-29T14:08:06;42.70;39.70
63289;DHT22;49412;48.162;-1.978;2022-07-29T14:10:32;43.70;39.60
63289;DHT22;49412;48.162;-1.978;2022-07-29T14:12:57;43.90;39.00
63289;DHT22;49412;48.162;-1.978;2022-07-29T14:15:23;43.30;38.70
63289;DHT22;49412;48.162;-1.978;2022-07-29T14:17:48;42.80;39.60
63289;DHT22;49412;48.162;-1.978;2022-07-29T14:20:14;43.50;39.00
63289;DHT22;49412;48.162;-1.978;2022-07-29T14:22:40;42.50;38.90
63289;DHT22;49412;48.162;-1.978;2022-07-29T14:25:07;41.30;40.50
63289;DHT22;49412;48.162;-1.978;2022-07-29T14:27:33;40.90;40.80
63289;DHT22;49412;48.162;-1.978;2022-07-29T14:29:59;40.00;41.70
63289;DHT22;49412;48.162;-1.978;2022-07-29T14:32:24;40.50;41.10
63289;DHT22;49412;48.162;-1.978;2022-07-29T14:34:50;38.80;42.00
63289;DHT22;49412;48.162;-1.978;2022-07-29T14:37:15;38.00;43.10
63289;DHT22;49412;48.162;-1.978;2022-07-29T14:39:41;37.70;43.50
63289;DHT22;49412;48.162;-1.978;2022-07-29T14:42:06;37.10;44.30
63289;DHT22;49412;48.162;-1.978;2022-07-29T14:44:33;36.40;45.40
63289;DHT22;49412;48.162;-1.978;2022-07-29T14:46:59;36.40;45.20
63289;DHT22;49412;48.162;-1.978;2022-07-29T14:49:25;36.30;45.20
63289;DHT22;49412;48.162;-1.978;2022-07-29T14:51:50;36.00;45.00
63289;DHT22;49412;48.162;-1.978;2022-07-29T14:54:16;36.10;45.20
63289;DHT22;49412;48.162;-1.978;2022-07-29T14:56:42;35.80;45.50
63289;DHT22;49412;48.162;-1.978;2022-07-29T14:59:08;35.70;45.60
63289;DHT22;49412;48.162;-1.978;2022-07-29T15:01:33;35.30;46.60
63289;DHT22;49412;48.162;-1.978;2022-07-29T15:03:59;35.30;46.20
63289;DHT22;49412;48.162;-1.978;2022-07-29T15:06:24;35.00;46.30
63289;DHT22;49412;48.162;-1.978;2022-07-29T15:08:50;35.00;46.50
63289;DHT22;49412;48.162;-1.978;2022-07-29T15:11:16;35.00;46.50
63289;DHT22;49412;48.162;-1.978;2022-07-29T15:13:41;34.50;46.80
63289;DHT22;49412;48.162;-1.978;2022-07-29T15:16:07;34.30;47.30
63289;DHT22;49412;48.162;-1.978;2022-07-29T15:18:32;34.30;47.50
63289;DHT22;49412;48.162;-1.978;2022-07-29T15:20:58;34.30;47.40
63289;DHT22;49412;48.162;-1.978;2022-07-29T15:23:25;34.30;47.60
63289;DHT22;49412;48.162;-1.978;2022-07-29T15:25:51;34.20;47.60
63289;DHT22;49412;48.162;-1.978;2022-07-29T15:28:17;34.30;47.70
63289;DHT22;49412;48.162;-1.978;2022-07-29T15:30:42;34.40;47.30
63289;DHT22;49412;48.162;-1.978;2022-07-29T15:33:08;34.30;47.70
63289;DHT22;49412;48.162;-1.978;2022-07-29T15:35:37;34.30;47.80
63289;DHT22;49412;48.162;-1.978;2022-07-29T15:38:03;33.90;48.10
63289;DHT22;49412;48.162;-1.978;2022-07-29T15:40:28;33.80;47.90
63289;DHT22;49412;48.162;-1.978;2022-07-29T15:42:54;33.50;48.60
63289;DHT22;49412;48.162;-1.978;2022-07-29T15:45:19;33.70;48.50
63289;DHT22;49412;48.162;-1.978;2022-07-29T15:47:45;34.20;47.80
63289;DHT22;49412;48.162;-1.978;2022-07-29T15:50:10;33.90;48.10